Time;durP1;ratioP1;P1;durP2;ratioP2;P2;SDS_P1;SDS_P2;PMS_P1;PMS_P2;Temp;Humidity;BMP_temperature;BMP_pressure;BME280_temperature;BME280_humidity;BME280_pressure;Samples;Min_cycle;Max_cycle;Signal;HPM_P1;HPM_P2
2022/01/30 00:01:51;;;;;;;21.55;14.40;;;-1.80;96.80;;;;;;5032390;28;20383;-81
2022/01/30 00:04:17;;;;;;;21.83;12.23;;;-1.80;96.80;;;;;;5032130;28;20064;-81
2022/01/30 00:06:43;;;;;;;22.67;12.55;;;-1.80;96.80;;;;;;5032121;28;20037;-78
2022/01/30 00:09:16;;;;;;;19.17;11.65;;;-1.80;96.90;;;;;;5032100;28;20025;-80
2022/01/30 00:11:44;;;;;;;15.52;10.57;;;-1.80;96.80;;;;;;5032058;28;20056;-79
2022/01/30 00:14:13;;;;;;;16.33;11.73;;;-1.90;96.60;;;;;;5031955;28;20078;-80
2022/01/30 00:16:39;;;;;;;15.90;10.63;;;-1.90;96.70;;;;;;5032217;28;20032;-79
2022/01/30 00:19:19;;;;;;;15.90;9.75;;;-2.00;96.50;;;;;;5032685;28;20044;-78
2022/01/30 00:21:50;;;;;;;14.23;10.02;;;-2.00;96.40;;;;;;5032208;28;20037;-78
2022/01/30 00:24:33;;;;;;;12.38;8.50;;;-2.00;96.40;;;;;;5012786;28;20113;-79
2022/01/30 00:26:59;;;;;;;15.68;9.93;;;-2.00;96.40;;;;;;5012531;28;20026;-78
2022/01/30 00:29:25;;;;;;;15.52;9.30;;;-2.10;96.50;;;;;;4994537;28;20168;-78
2022/01/30 00:31:51;;;;;;;17.10;9.88;;;-2.10;96.50;;;;;;5012406;28;20022;-80
2022/01/30 00:34:17;;;;;;;14.50;8.73;;;-2.10;96.50;;;;;;5012458;28;20018;-81
2022/01/30 00:36:43;;;;;;;13.95;9.98;;;-2.10;96.50;;;;;;5012299;28;20034;-79
2022/01/30 00:39:09;;;;;;;14.68;9.32;;;-2.10;96.30;;;;;;4995161;28;20062;-75
2022/01/30 00:41:35;;;;;;;13.38;8.43;;;-2.10;96.20;;;;;;5013635;28;20030;-79
2022/01/30 00:44:01;;;;;;;11.10;7.85;;;-2.10;96.30;;;;;;5014979;28;20093;-79
2022/01/30 00:46:26;;;;;;;8.75;6.63;;;-2.10;96.20;;;;;;5031678;28;20022;-77
2022/01/30 00:48:52;;;;;;;10.20;6.35;;;-2.10;96.10;;;;;;5044127;28;20032;-77
2022/01/30 00:51:18;;;;;;;10.20;7.00;;;-2.20;95.90;;;;;;5042139;28;20041;-78
2022/01/30 00:53:44;;;;;;;9.60;7.35;;;-2.20;95.90;;;;;;5032498;28;20124;-79
2022/01/30 00:56:10;;;;;;;10.07;7.07;;;-2.20;95.40;;;;;;5025713;28;20037;-80
2022/01/30 00:58:36;;;;;;;9.02;6.00;;;-2.20;95.40;;;;;;5015580;28;20066;-76
2022/01/30 01:01:02;;;;;;;9.23;6.28;;;-2.20;95.30;;;;;;5014864;28;20049;-76
2022/01/30 01:03:28;;;;;;;8.02;6.43;;;-2.20;95.10;;;;;;5015318;28;20125;-77
2022/01/30 01:05:53;;;;;;;9.43;5.03;;;-2.20;95.00;;;;;;5013835;28;20026;-77
2022/01/30 01:08:30;;;;;;;8.10;5.90;;;-2.20;95.00;;;;;;5013086;28;20513;-77
2022/01/30 01:11:28;;;;;;;8.75;5.03;;;-2.20;94.70;;;;;;5009815;28;20463;-77
2022/01/30 01:24:41;;;;;;;5.65;3.70;;;-2.30;94.30;;;;;;5013892;28;20096;-75
2022/01/30 01:27:07;;;;;;;3.65;2.90;;;-2.30;94.40;;;;;;5014595;28;20026;-76
2022/01/30 01:29:32;;;;;;;5.63;3.58;;;-2.30;94.30;;;;;;5031299;28;20457;-77
2022/01/30 01:31:58;;;;;;;7.90;3.75;;;-2.40;94.60;;;;;;5034356;28;20340;-77
2022/01/30 01:36:53;;;;;;;6.63;4.80;;;-2.40;94.50;;;;;;5034384;28;20028;-77
2022/01/30 01:39:19;;;;;;;5.20;3.67;;;-2.40;94.30;;;;;;5028064;28;20034;-75
2022/01/30 01:41:44;;;;;;;6.18;4.45;;;-2.40;94.50;;;;;;5015434;28;20455;-77
2022/01/30 01:44:18;;;;;;;4.85;3.72;;;-2.40;94.70;;;;;;5016283;28;20030;-77
2022/01/30 01:46:45;;;;;;;5.97;3.80;;;-2.40;94.80;;;;;;5013435;28;20030;-76
2022/01/30 01:49:18;;;;;;;6.45;3.92;;;-2.40;94.80;;;;;;4997268;28;20026;-76
2022/01/30 01:51:49;;;;;;;5.60;4.05;;;-2.40;94.80;;;;;;5013638;28;20125;-78
2022/01/30 01:54:15;;;;;;;3.83;2.95;;;-2.40;95.50;;;;;;5013411;28;20490;-76
2022/01/30 01:56:41;;;;;;;5.07;3.03;;;-2.50;95.40;;;;;;5014096;28;20453;-77
2022/01/30 01:59:07;;;;;;;4.68;3.75;;;-2.50;95.10;;;;;;5014471;28;20061;-79
2022/01/30 02:01:33;;;;;;;4.63;3.75;;;-2.50;94.90;;;;;;5014395;28;20076;-75
2022/01/30 02:03:58;;;;;;;6.53;3.72;;;-2.50;94.90;;;;;;5013926;28;20141;-75
2022/01/30 02:06:26;;;;;;;6.63;3.60;;;-2.50;94.80;;;;;;5014231;28;20033;-80
2022/01/30 02:09:00;;;;;;;7.47;3.90;;;-2.50;94.80;;;;;;5014132;28;20450;-76
2022/01/30 02:11:42;;;;;;;5.93;3.67;;;-2.50;95.00;;;;;;4996032;28;20030;-78
2022/01/30 02:25:15;;;;;;;4.85;4.00;;;-2.60;96.00;;;;;;5014949;28;20731;-77
2022/01/30 02:27:41;;;;;;;5.30;3.80;;;-2.60;96.10;;;;;;4996535;28;20458;-77
2022/01/30 02:30:18;;;;;;;4.38;3.30;;;-2.60;96.00;;;;;;5012800;28;20125;-76
2022/01/30 02:32:45;;;;;;;4.97;3.03;;;-2.70;96.10;;;;;;5013605;28;20026;-78
2022/01/30 02:35:11;;;;;;;;;;;-2.70;96.30;;;;;;5014105;28;20061;-77
2022/01/30 02:37:37;;;;;;;5.47;3.60;;;-2.70;96.30;;;;;;5013634;28;19982;-76
2022/01/30 02:40:07;;;;;;;4.00;3.47;;;-2.80;96.60;;;;;;5013730;28;20026;-77
2022/01/30 02:42:36;;;;;;;3.28;2.85;;;-2.80;96.70;;;;;;5013717;28;20114;-77
2022/01/30 02:45:08;;;;;;;5.30;2.75;;;-2.80;96.50;;;;;;5013204;28;20026;-81
2022/01/30 02:52:44;;;;;;;10.27;6.43;;;-2.80;97.00;;;;;;5013202;28;20132;-79
2022/01/30 02:55:11;;;;;;;5.63;3.92;;;-2.90;97.30;;;;;;4995719;28;20561;-78
2022/01/30 02:57:37;;;;;;;;;;;-2.90;97.40;;;;;;5013581;28;20034;-76
2022/01/30 03:00:08;;;;;;;5.75;3.85;;;-2.90;97.40;;;;;;5011805;28;19913;-77
2022/01/30 03:02:34;;;;;;;5.82;3.85;;;-2.90;97.60;;;;;;5012743;28;20045;-77
2022/01/30 03:05:00;;;;;;;6.03;3.83;;;-2.90;97.70;;;;;;5013187;28;20018;-75
2022/01/30 03:07:26;;;;;;;10.75;4.97;;;-2.90;97.90;;;;;;5012473;28;20030;-77
2022/01/30 03:09:51;;;;;;;6.38;4.20;;;-2.90;98.10;;;;;;5012912;28;20026;-76
2022/01/30 03:12:17;;;;;;;6.45;4.03;;;-2.90;98.20;;;;;;5012649;28;20124;-76
2022/01/30 03:14:43;;;;;;;7.03;4.47;;;-2.90;98.30;;;;;;5012743;28;20022;-77
2022/01/30 03:17:09;;;;;;;6.10;4.15;;;-2.90;98.20;;;;;;5011200;28;20147;-77
2022/01/30 03:19:35;;;;;;;9.07;4.55;;;-2.90;98.20;;;;;;5012258;28;20029;-76
2022/01/30 03:22:00;;;;;;;8.02;5.38;;;-2.80;98.30;;;;;;5016385;28;20030;-76
2022/01/30 03:24:33;;;;;;;7.07;4.53;;;-2.80;98.40;;;;;;5014375;28;20022;-76
2022/01/30 03:26:59;;;;;;;5.03;4.10;;;-2.90;98.70;;;;;;4995253;28;20036;-76
2022/01/30 03:29:25;;;;;;;3.20;2.72;;;-2.90;98.50;;;;;;5011216;28;20042;-76
2022/01/30 03:31:50;;;;;;;8.02;3.50;;;-2.90;98.60;;;;;;5011733;28;20391;-76
2022/01/30 03:34:16;;;;;;;5.97;3.42;;;-2.90;98.50;;;;;;5011688;28;20037;-75
2022/01/30 03:36:42;;;;;;;8.68;4.47;;;-3.00;98.50;;;;;;5011869;28;20105;-77
2022/01/30 03:39:08;;;;;;;6.32;4.18;;;-3.00;98.70;;;;;;5010809;28;20435;-77
2022/01/30 03:41:34;;;;;;;6.70;4.00;;;-3.00;98.80;;;;;;5010134;28;20038;-76
2022/01/30 03:44:00;;;;;;;5.60;4.65;;;-3.00;98.90;;;;;;5011555;28;20499;-76
2022/01/30 03:46:27;;;;;;;7.32;4.80;;;-3.00;98.90;;;;;;5011693;28;20033;-75
2022/01/30 03:48:53;;;;;;;;;;;-3.00;99.30;;;;;;5012186;28;20113;-76
2022/01/30 03:51:18;;;;;;;5.95;3.55;;;-2.90;98.90;;;;;;5012574;28;19913;-77
2022/01/30 03:53:44;;;;;;;8.35;4.05;;;-2.90;99.00;;;;;;5015633;28;20029;-75
2022/01/30 03:56:11;;;;;;;6.82;5.15;;;-2.90;99.10;;;;;;5032473;28;20053;-76
2022/01/30 03:58:37;;;;;;;7.72;5.47;;;-2.90;99.00;;;;;;5032699;28;20053;-76
2022/01/30 04:01:03;;;;;;;7.72;5.28;;;-2.90;99.00;;;;;;5032193;28;20072;-77
2022/01/30 04:03:29;;;;;;;7.65;5.28;;;-2.90;99.00;;;;;;5032228;28;20501;-78
2022/01/30 04:05:55;;;;;;;6.93;4.70;;;-2.90;99.10;;;;;;5031038;28;20018;-75
2022/01/30 04:08:21;;;;;;;7.18;4.60;;;-2.90;99.10;;;;;;5030282;28;20025;-77
2022/01/30 04:10:47;;;;;;;8.48;5.15;;;-2.90;99.20;;;;;;4993637;28;20483;-76
2022/01/30 04:13:13;;;;;;;4.38;3.78;;;-2.90;99.30;;;;;;5011626;28;20032;-77
2022/01/30 04:15:39;;;;;;;6.47;4.47;;;-2.90;99.40;;;;;;5011216;28;20438;-76
2022/01/30 04:18:09;;;;;;;7.90;4.15;;;-3.00;99.40;;;;;;5011071;28;20033;-77
2022/01/30 04:20:35;;;;;;;4.55;3.42;;;-3.00;99.40;;;;;;4995835;28;20038;-76
2022/01/30 04:23:00;;;;;;;7.25;4.90;;;-3.00;99.50;;;;;;5014791;28;20034;-76
2022/01/30 04:25:26;;;;;;;5.75;4.35;;;-3.00;99.50;;;;;;5015061;28;20114;-75
2022/01/30 04:27:52;;;;;;;6.45;3.95;;;-3.00;99.60;;;;;;5013813;28;20033;-75
2022/01/30 04:30:18;;;;;;;5.43;4.17;;;-3.00;99.70;;;;;;4974025;28;1191028;-77
2022/01/30 04:32:44;;;;;;;7.60;5.50;;;-3.00;99.80;;;;;;5015960;28;20026;-75
2022/01/30 04:35:16;;;;;;;6.32;4.57;;;-3.00;99.80;;;;;;5015831;28;20034;-75
2022/01/30 04:54:26;;;;;;;5.60;4.70;;;-3.00;99.90;;;;;;5015461;28;20088;-76
2022/01/30 05:04:27;;;;;;;6.30;4.10;;;-3.10;99.80;;;;;;5015550;28;20030;-78
2022/01/30 05:07:26;;;;;;;7.18;4.45;;;-3.10;99.90;;;;;;5015278;28;20025;-76
2022/01/30 05:09:40;;;;;;;8.70;4.18;;;-3.10;99.90;;;;;;5014889;28;20572;-77
2022/01/30 05:12:07;;;;;;;5.45;3.72;;;-3.10;99.90;;;;;;5014592;28;20109;-75
2022/01/30 05:14:35;;;;;;;6.10;4.35;;;-3.10;99.90;;;;;;5014940;28;20037;-76
2022/01/30 05:17:04;;;;;;;4.47;3.28;;;-3.10;99.90;;;;;;5014987;28;20479;-77
2022/01/30 05:19:30;;;;;;;5.22;3.83;;;-3.10;99.90;;;;;;5014919;28;20030;-77
2022/01/30 05:21:57;;;;;;;5.75;3.92;;;-3.10;99.90;;;;;;5014765;28;20430;-76
2022/01/30 05:24:23;;;;;;;5.93;3.80;;;-3.10;99.90;;;;;;5014722;28;20030;-77
2022/01/30 05:26:50;;;;;;;3.58;2.88;;;-3.00;99.90;;;;;;5014019;28;20038;-76
2022/01/30 05:29:16;;;;;;;5.65;4.20;;;-3.00;99.90;;;;;;5014921;28;20029;-78
2022/01/30 05:31:43;;;;;;;5.28;3.20;;;-3.00;99.90;;;;;;5014265;28;20117;-76
2022/01/30 05:34:09;;;;;;;4.38;3.30;;;-3.00;99.90;;;;;;5015308;28;20072;-79
2022/01/30 05:36:38;;;;;;;5.25;3.67;;;-3.00;99.90;;;;;;5014813;28;20057;-77
2022/01/30 05:39:05;;;;;;;4.65;3.35;;;-3.00;99.90;;;;;;5014799;28;20018;-79
2022/01/30 05:41:32;;;;;;;4.82;3.22;;;-3.00;99.90;;;;;;5014664;28;20486;-77
2022/01/30 05:44:07;;;;;;;4.53;2.70;;;-3.00;99.90;;;;;;5014355;28;20029;-77
2022/01/30 05:46:44;;;;;;;4.50;3.17;;;-3.00;99.80;;;;;;5015363;28;20030;-77
2022/01/30 05:49:12;;;;;;;4.25;2.50;;;-3.00;99.40;;;;;;5014655;28;20030;-77
2022/01/30 05:51:38;;;;;;;4.82;3.38;;;-3.10;99.50;;;;;;5014470;28;20033;-76
2022/01/30 05:54:04;;;;;;;6.35;3.88;;;-3.10;99.50;;;;;;5014451;28;20383;-77
2022/01/30 05:56:30;;;;;;;4.90;3.17;;;-3.10;99.50;;;;;;5016425;28;20364;-77
2022/01/30 05:58:55;;;;;;;3.15;2.72;;;-3.10;99.60;;;;;;5017178;28;20443;-75
2022/01/30 06:01:21;;;;;;;3.25;2.38;;;-3.20;99.60;;;;;;5023662;28;20033;-76
2022/01/30 06:03:47;;;;;;;2.78;2.28;;;-3.10;99.40;;;;;;5035822;28;20020;-77
2022/01/30 06:06:13;;;;;;;4.80;2.60;;;-3.20;99.60;;;;;;5016360;28;20405;-76
2022/01/30 06:08:43;;;;;;;4.53;2.45;;;-3.20;99.70;;;;;;5033993;28;20024;-79
2022/01/30 06:11:10;;;;;;;4.75;3.08;;;-3.10;99.70;;;;;;5034136;28;20021;-78
2022/01/30 06:13:37;;;;;;;4.88;3.15;;;-3.20;99.90;;;;;;5034335;28;20026;-77
2022/01/30 06:16:03;;;;;;;6.85;3.15;;;-3.10;99.90;;;;;;5017236;28;20049;-77
2022/01/30 06:18:29;;;;;;;4.35;2.78;;;-3.10;99.90;;;;;;5013684;28;20033;-76
2022/01/30 06:20:55;;;;;;;4.47;3.35;;;-3.00;99.90;;;;;;5013841;28;20497;-76
2022/01/30 06:23:25;;;;;;;4.22;3.40;;;-3.10;99.90;;;;;;5014688;28;20061;-75
2022/01/30 06:25:55;;;;;;;5.10;2.53;;;-3.00;99.90;;;;;;5014742;28;20018;-77
2022/01/30 06:28:21;;;;;;;4.93;2.83;;;-3.00;99.90;;;;;;5014359;28;20026;-78
2022/01/30 06:30:47;;;;;;;1.75;1.20;;;-3.00;99.90;;;;;;5012253;28;20137;-77
2022/01/30 06:33:13;;;;;;;3.05;2.47;;;-3.00;99.60;;;;;;5013237;28;20459;-77
2022/01/30 06:35:38;;;;;;;2.63;1.95;;;-3.00;99.60;;;;;;5013759;28;20155;-77
2022/01/30 06:38:04;;;;;;;2.33;2.03;;;-3.00;99.70;;;;;;5014351;28;20422;-77
2022/01/30 06:40:30;;;;;;;2.97;2.10;;;-3.00;99.60;;;;;;5013693;28;20033;-77
2022/01/30 06:42:56;;;;;;;7.80;2.47;;;-3.00;99.80;;;;;;5011371;28;20124;-79
2022/01/30 06:45:23;;;;;;;4.65;2.42;;;-3.00;99.80;;;;;;5013479;28;20131;-78
2022/01/30 06:47:50;;;;;;;3.70;2.22;;;-3.00;99.80;;;;;;4995733;28;20033;-79
2022/01/30 06:50:16;;;;;;;2.40;2.03;;;-3.00;99.90;;;;;;5012843;28;20026;-76
2022/01/30 06:52:41;;;;;;;2.85;1.88;;;-3.00;99.80;;;;;;4995734;28;20117;-76
2022/01/30 06:55:08;;;;;;;1.95;1.60;;;-3.00;99.50;;;;;;5013229;28;20104;-77
2022/01/30 06:57:34;;;;;;;3.67;2.45;;;-3.00;99.60;;;;;;5013115;28;20100;-77
2022/01/30 07:00:00;;;;;;;3.20;2.58;;;-3.00;99.60;;;;;;5012004;28;20157;-77
2022/01/30 07:02:26;;;;;;;2.40;1.95;;;-3.10;99.70;;;;;;5014487;28;20456;-76
2022/01/30 07:04:52;;;;;;;2.00;1.38;;;-3.00;99.90;;;;;;5013227;28;20125;-76
2022/01/30 07:07:18;;;;;;;4.35;2.35;;;-3.00;99.60;;;;;;5013025;28;20065;-76
2022/01/30 07:09:44;;;;;;;3.08;1.83;;;-3.10;99.50;;;;;;5012270;28;20136;-76
2022/01/30 07:12:11;;;;;;;2.42;2.00;;;-3.10;99.60;;;;;;5011744;28;20427;-78
2022/01/30 07:14:37;;;;;;;3.55;2.28;;;-3.10;99.50;;;;;;5013143;28;20026;-78
2022/01/30 07:17:03;;;;;;;2.22;1.63;;;-3.10;99.30;;;;;;5013076;28;20056;-77
2022/01/30 07:19:28;;;;;;;2.55;2.10;;;-3.10;99.40;;;;;;5012976;28;20030;-80
2022/01/30 07:21:54;;;;;;;3.28;2.00;;;-3.10;99.50;;;;;;5012697;28;20034;-77
2022/01/30 07:24:20;;;;;;;2.42;1.30;;;-3.10;99.70;;;;;;5012696;28;20017;-78
2022/01/30 07:26:46;;;;;;;2.53;1.65;;;-3.10;99.40;;;;;;5013950;28;20034;-77
2022/01/30 07:29:12;;;;;;;2.60;1.95;;;-3.10;99.40;;;;;;5012678;28;20026;-78
2022/01/30 07:31:38;;;;;;;2.13;1.88;;;-3.10;99.50;;;;;;5011528;28;20120;-76
2022/01/30 07:34:04;;;;;;;4.18;3.53;;;-3.00;99.50;;;;;;5011227;28;20126;-78
2022/01/30 07:36:35;;;;;;;3.05;2.10;;;-3.00;99.50;;;;;;5012640;28;20114;-77
2022/01/30 07:39:01;;;;;;;1.73;1.25;;;-3.00;99.60;;;;;;5012841;28;20022;-77
2022/01/30 07:41:27;;;;;;;4.63;2.65;;;-3.00;99.40;;;;;;5016917;28;20090;-77
2022/01/30 07:43:53;;;;;;;2.50;2.25;;;-2.90;99.50;;;;;;5032186;28;20037;-77
2022/01/30 07:46:19;;;;;;;3.40;2.30;;;-2.90;99.70;;;;;;5032182;28;20395;-77
2022/01/30 07:48:45;;;;;;;2.90;2.53;;;-3.00;99.60;;;;;;5032226;28;20360;-76
2022/01/30 07:51:10;;;;;;;3.65;2.00;;;-3.00;99.50;;;;;;5014358;28;20033;-79
2022/01/30 07:53:36;;;;;;;4.28;3.75;;;-2.90;99.70;;;;;;5031981;28;20104;-77
2022/01/30 07:56:03;;;;;;;4.43;2.92;;;-2.90;99.70;;;;;;5014206;28;20339;-80
2022/01/30 07:58:28;;;;;;;3.95;2.75;;;-2.90;99.90;;;;;;5019790;28;20030;-78
2022/01/30 08:00:54;;;;;;;2.60;2.05;;;-2.80;99.90;;;;;;5012346;28;20537;-78
2022/01/30 08:03:20;;;;;;;2.95;2.30;;;-2.80;99.90;;;;;;5012928;28;20030;-79
2022/01/30 08:05:46;;;;;;;2.72;2.28;;;-2.80;99.90;;;;;;5013141;28;20057;-78
2022/01/30 08:08:12;;;;;;;3.13;2.30;;;-2.70;99.90;;;;;;5013171;28;20502;-78
2022/01/30 08:10:38;;;;;;;6.82;2.70;;;-2.70;99.80;;;;;;4996932;28;20022;-78
2022/01/30 08:13:03;;;;;;;2.70;1.88;;;-2.70;99.70;;;;;;5015368;28;20083;-79
2022/01/30 08:15:29;;;;;;;3.03;1.77;;;-2.70;99.50;;;;;;5017254;28;20030;-78
2022/01/30 08:17:55;;;;;;;4.07;1.77;;;-2.70;99.20;;;;;;5014649;28;20029;-77
2022/01/30 08:20:24;;;;;;;3.67;1.67;;;-2.70;99.10;;;;;;5012033;28;20026;-78
2022/01/30 08:22:52;;;;;;;2.13;1.42;;;-2.70;99.10;;;;;;5012017;28;20034;-79
2022/01/30 08:25:24;;;;;;;4.10;1.77;;;-2.70;98.70;;;;;;5010679;28;20033;-79
2022/01/30 08:27:54;;;;;;;4.28;1.88;;;-2.70;97.60;;;;;;5012423;28;20022;-80
2022/01/30 08:30:20;;;;;;;3.28;1.88;;;-2.80;97.60;;;;;;5011902;28;20092;-78
2022/01/30 08:32:48;;;;;;;3.42;2.53;;;-2.90;97.90;;;;;;5011491;28;20494;-79
2022/01/30 08:35:59;;;;;;;2.55;1.80;;;-2.90;98.30;;;;;;5020092;28;20033;-77
2022/01/30 08:38:24;;;;;;;6.90;2.40;;;-2.80;98.40;;;;;;5031114;28;20087;-78
2022/01/30 08:40:50;;;;;;;2.63;2.00;;;-2.80;98.60;;;;;;5031976;28;20021;-79
2022/01/30 08:43:21;;;;;;;2.88;1.90;;;-2.80;98.60;;;;;;5031683;28;20026;-79
2022/01/30 08:45:47;;;;;;;2.92;2.17;;;-2.80;98.60;;;;;;5031561;28;20025;-76
2022/01/30 08:48:14;;;;;;;2.70;2.33;;;-2.70;98.40;;;;;;5031477;28;20041;-79
2022/01/30 08:50:39;;;;;;;3.28;1.75;;;-2.80;97.90;;;;;;5031624;28;20034;-77
2022/01/30 08:53:06;;;;;;;4.80;2.55;;;-2.80;98.00;;;;;;5011851;28;20394;-79
2022/01/30 08:55:33;;;;;;;2.97;1.83;;;-2.80;97.90;;;;;;5011776;28;20026;-77
2022/01/30 08:58:00;;;;;;;4.82;2.70;;;-2.90;98.10;;;;;;5011640;28;20436;-77
2022/01/30 09:00:26;;;;;;;4.50;2.78;;;-2.90;98.30;;;;;;5011635;28;20438;-75
2022/01/30 09:02:52;;;;;;;2.83;2.33;;;-2.90;98.60;;;;;;5010138;28;20041;-81
2022/01/30 09:05:18;;;;;;;4.30;2.42;;;-2.90;98.60;;;;;;5023825;28;20071;-77
2022/01/30 09:07:44;;;;;;;3.58;2.60;;;-2.80;98.80;;;;;;5015526;28;20033;-77
2022/01/30 09:10:11;;;;;;;3.42;2.10;;;-2.80;98.60;;;;;;5020152;28;20419;-77
2022/01/30 09:12:37;;;;;;;4.90;2.30;;;-2.70;98.60;;;;;;5015038;28;20041;-78
2022/01/30 09:15:05;;;;;;;5.57;2.50;;;-2.70;98.60;;;;;;5014835;28;20030;-78
2022/01/30 09:17:31;;;;;;;4.90;2.30;;;-2.70;98.60;;;;;;5017384;28;20050;-78
2022/01/30 09:19:57;;;;;;;4.65;1.67;;;-2.70;98.80;;;;;;5014897;28;20014;-79
2022/01/30 09:22:23;;;;;;;1.98;1.77;;;-2.70;97.60;;;;;;5028918;28;20040;-78
2022/01/30 09:24:49;;;;;;;3.38;2.00;;;-2.70;97.80;;;;;;5033474;28;20030;-77
2022/01/30 09:27:15;;;;;;;2.45;1.73;;;-2.80;96.90;;;;;;5022546;28;20514;-77
2022/01/30 09:29:43;;;;;;;1.45;1.35;;;-2.90;97.30;;;;;;5018746;28;20042;-76
2022/01/30 09:32:09;;;;;;;4.53;2.60;;;-2.90;97.50;;;;;;5014943;28;20030;-78
2022/01/30 09:34:36;;;;;;;4.38;2.70;;;-2.90;97.60;;;;;;5016224;28;20022;-77
2022/01/30 09:37:04;;;;;;;5.43;2.70;;;-2.80;98.40;;;;;;5017848;28;20018;-77
2022/01/30 09:39:29;;;;;;;2.70;2.10;;;-2.60;99.00;;;;;;5034705;28;20033;-77
2022/01/30 09:41:57;;;;;;;3.58;2.42;;;-2.30;99.20;;;;;;5027410;28;20034;-77
2022/01/30 09:44:23;;;;;;;;;;;-2.10;99.30;;;;;;5021784;28;20128;-77
2022/01/30 09:46:50;;;;;;;3.20;1.95;;;-1.80;99.30;;;;;;5016132;28;20380;-77
2022/01/30 09:49:21;;;;;;;4.38;2.33;;;-1.40;99.80;;;;;;5014053;28;20026;-77
2022/01/30 09:51:47;;;;;;;5.10;3.05;;;-1.10;99.60;;;;;;5014078;28;20040;-79
2022/01/30 09:54:13;;;;;;;4.97;2.63;;;-0.80;99.20;;;;;;5014132;28;20060;-76
2022/01/30 09:56:40;;;;;;;2.20;1.90;;;-0.50;98.50;;;;;;5014127;28;20022;-82
2022/01/30 09:59:06;;;;;;;3.85;2.22;;;-0.40;98.00;;;;;;5017691;28;20095;-84
2022/01/30 10:01:33;;;;;;;2.55;1.90;;;-0.50;97.20;;;;;;5021256;28;20030;-84
2022/01/30 10:04:00;;;;;;;4.85;2.78;;;-0.60;96.70;;;;;;5019218;28;20545;-76
2022/01/30 10:06:33;;;;;;;3.90;2.60;;;-0.60;96.40;;;;;;5013489;28;20146;-80
2022/01/30 10:09:09;;;;;;;4.55;2.97;;;-0.60;96.40;;;;;;5026364;28;20033;-76
2022/01/30 10:11:48;;;;;;;9.20;2.80;;;-0.60;96.30;;;;;;5014390;28;20423;-78
2022/01/30 10:14:15;;;;;;;5.35;1.90;;;-0.60;96.70;;;;;;5034936;28;20057;-79
2022/01/30 10:16:43;;;;;;;2.80;2.25;;;-0.70;96.30;;;;;;5033934;28;20025;-80
2022/01/30 10:19:12;;;;;;;2.38;2.05;;;-0.90;94.90;;;;;;5028673;28;20024;-81
2022/01/30 10:21:39;;;;;;;3.40;2.15;;;-1.10;94.80;;;;;;5022778;28;20935;-78
2022/01/30 10:24:25;;;;;;;4.78;2.58;;;-1.30;95.10;;;;;;4997299;28;20109;-77
2022/01/30 10:26:53;;;;;;;5.40;2.72;;;-1.50;95.30;;;;;;4996288;28;20490;-76
2022/01/30 10:29:27;;;;;;;4.15;2.85;;;-1.60;95.20;;;;;;5013952;28;20053;-78
2022/01/30 10:32:04;;;;;;;2.70;2.03;;;-1.60;95.90;;;;;;5014111;28;20101;-77
2022/01/30 10:34:31;;;;;;;4.72;2.22;;;-1.70;96.20;;;;;;5015326;28;20022;-78
2022/01/30 10:37:16;;;;;;;3.17;2.78;;;-1.70;95.70;;;;;;5020503;28;20018;-78
2022/01/30 10:40:20;;;;;;;4.00;2.45;;;-1.80;95.80;;;;;;5019114;28;20407;-77
2022/01/30 10:42:50;;;;;;;4.90;3.33;;;-1.90;95.50;;;;;;5013315;28;20073;-76
2022/01/30 10:45:19;;;;;;;3.13;2.45;;;-2.00;95.70;;;;;;5014231;28;20032;-77
2022/01/30 10:47:45;;;;;;;4.03;2.60;;;-1.90;96.40;;;;;;5013867;28;20032;-78
2022/01/30 10:50:15;;;;;;;4.03;2.70;;;-1.90;96.70;;;;;;5014135;28;20033;-77
2022/01/30 10:53:15;;;;;;;4.10;3.20;;;-1.90;96.00;;;;;;5016575;28;20037;-77
2022/01/30 10:55:44;;;;;;;3.58;2.72;;;-2.00;95.80;;;;;;5015851;28;20044;-78
2022/01/30 10:58:15;;;;;;;4.90;2.30;;;-2.00;96.30;;;;;;5003989;28;20071;-78
2022/01/30 11:00:46;;;;;;;3.33;2.60;;;-2.00;96.50;;;;;;5024095;28;20029;-75
2022/01/30 11:03:37;;;;;;;5.53;2.60;;;-2.00;96.70;;;;;;5013827;28;20089;-77
2022/01/30 11:06:07;;;;;;;5.50;3.33;;;-1.90;96.60;;;;;;5014329;28;20420;-76
2022/01/30 11:08:34;;;;;;;7.20;4.13;;;-1.90;96.80;;;;;;5019898;28;20466;-80
2022/01/30 11:11:35;;;;;;;8.75;4.00;;;-1.90;97.00;;;;;;5027247;28;20533;-80
2022/01/30 11:19:17;;;;;;;7.72;4.85;;;-1.90;96.70;;;;;;5013058;28;20045;-80
2022/01/30 11:21:48;;;;;;;3.97;2.35;;;-1.90;96.90;;;;;;5012897;28;20483;-78
2022/01/30 11:24:15;;;;;;;6.32;3.42;;;-1.90;96.90;;;;;;5013081;28;20030;-80
2022/01/30 11:26:42;;;;;;;7.15;3.30;;;-1.90;97.10;;;;;;5012441;28;20053;-79
2022/01/30 11:29:12;;;;;;;6.95;3.25;;;-1.90;97.00;;;;;;5012318;28;20064;-78
2022/01/30 11:31:38;;;;;;;4.68;3.13;;;-1.80;97.10;;;;;;5012942;28;20034;-79
2022/01/30 11:34:05;;;;;;;6.25;2.42;;;-1.80;97.00;;;;;;4995009;28;20026;-79
2022/01/30 11:36:32;;;;;;;5.50;3.50;;;-1.80;96.70;;;;;;5012609;28;20104;-79
2022/01/30 11:39:00;;;;;;;4.05;3.03;;;-1.80;96.90;;;;;;4994598;28;20399;-81
2022/01/30 11:41:26;;;;;;;5.78;3.60;;;-1.70;96.70;;;;;;5012664;28;20530;-79
2022/01/30 11:44:19;;;;;;;6.47;3.80;;;-1.80;96.70;;;;;;5018910;28;20109;-80
2022/01/30 11:46:59;;;;;;;5.55;2.80;;;-1.70;96.80;;;;;;5032446;28;20021;-81
2022/01/30 11:50:00;;;;;;;4.78;3.50;;;-1.80;96.90;;;;;;5032556;28;20049;-80
2022/01/30 11:52:58;;;;;;;7.03;3.78;;;-1.80;97.00;;;;;;5015192;28;20037;-81
2022/01/30 11:55:49;;;;;;;11.90;4.10;;;-1.80;97.10;;;;;;5009471;28;20060;-79
2022/01/30 11:58:33;;;;;;;5.28;3.05;;;-1.70;97.10;;;;;;5024560;28;20367;-81
2022/01/30 12:01:13;;;;;;;9.13;4.63;;;-1.70;97.30;;;;;;5012048;28;20502;-80
2022/01/30 12:03:56;;;;;;;6.07;3.72;;;-1.70;97.20;;;;;;5012501;28;20542;-82
2022/01/30 12:06:25;;;;;;;7.68;4.03;;;-1.70;97.20;;;;;;5012279;28;20435;-78
2022/01/30 12:08:55;;;;;;;5.75;3.65;;;-1.70;97.20;;;;;;5012702;28;20037;-82
2022/01/30 12:11:37;;;;;;;7.10;3.45;;;-1.60;97.20;;;;;;5013048;28;20045;-85
2022/01/30 12:14:10;;;;;;;6.55;3.45;;;-1.60;96.90;;;;;;5012857;28;20065;-83
2022/01/30 12:16:45;;;;;;;5.90;3.38;;;-1.60;96.70;;;;;;5025544;28;20026;-82
2022/01/30 12:19:13;;;;;;;5.25;3.42;;;-1.60;96.50;;;;;;5014287;28;20030;-86
2022/01/30 12:21:40;;;;;;;5.50;3.83;;;-1.50;96.70;;;;;;5016823;28;20037;-82
2022/01/30 12:24:28;;;;;;;7.03;3.55;;;-1.50;96.80;;;;;;5000310;28;20053;-79
2022/01/30 12:27:00;;;;;;;6.15;4.13;;;-1.50;96.60;;;;;;5000566;28;20026;-80
2022/01/30 12:29:43;;;;;;;6.68;3.88;;;-1.60;96.60;;;;;;5019217;28;20034;-79
2022/01/30 12:32:24;;;;;;;6.25;3.40;;;-1.60;96.60;;;;;;5005866;28;20034;-76
2022/01/30 12:34:56;;;;;;;7.60;4.25;;;-1.60;96.70;;;;;;5015104;28;20430;-75
2022/01/30 12:37:31;;;;;;;7.43;3.67;;;-1.70;96.70;;;;;;5013620;28;20073;-77
2022/01/30 12:40:00;;;;;;;7.82;4.07;;;-1.70;96.60;;;;;;5016193;28;20033;-77
2022/01/30 12:42:30;;;;;;;6.85;3.95;;;-1.70;96.60;;;;;;5015702;28;20041;-79
2022/01/30 12:45:01;;;;;;;8.80;4.75;;;-1.80;96.30;;;;;;5015893;28;20029;-79
2022/01/30 12:47:27;;;;;;;6.25;4.38;;;-1.80;96.50;;;;;;5015765;28;20549;-77
2022/01/30 12:49:57;;;;;;;4.50;3.53;;;-1.80;96.70;;;;;;5015482;28;20030;-78
2022/01/30 12:55:01;;;;;;;5.05;3.97;;;-1.80;96.80;;;;;;5015614;28;20426;-81
2022/01/30 12:57:30;;;;;;;9.30;4.03;;;-1.80;96.80;;;;;;5015438;28;20168;-79
2022/01/30 12:59:59;;;;;;;4.15;3.40;;;-1.70;96.80;;;;;;5015265;28;20022;-77
2022/01/30 13:02:27;;;;;;;6.72;4.15;;;-1.70;96.80;;;;;;5014953;28;20500;-79
2022/01/30 13:05:07;;;;;;;6.88;4.65;;;-1.70;96.70;;;;;;5018717;28;20013;-79
2022/01/30 13:07:34;;;;;;;8.57;5.18;;;-1.70;96.80;;;;;;5010018;28;20037;-79
2022/01/30 13:10:12;;;;;;;7.03;5.20;;;-1.70;96.70;;;;;;5015157;28;20018;-79
2022/01/30 13:12:38;;;;;;;6.18;4.13;;;-1.70;96.80;;;;;;5016726;28;20072;-77
2022/01/30 13:15:06;;;;;;;4.63;3.70;;;-1.70;96.80;;;;;;5026406;28;20025;-79
2022/01/30 13:17:32;;;;;;;8.80;4.28;;;-1.70;96.90;;;;;;5014846;28;20030;-78
2022/01/30 13:19:58;;;;;;;5.85;4.53;;;-1.70;96.90;;;;;;5015019;28;20021;-77
2022/01/30 13:22:36;;;;;;;8.25;4.32;;;-1.70;96.70;;;;;;5013272;28;20140;-79
2022/01/30 13:25:08;;;;;;;9.48;4.35;;;-1.70;96.70;;;;;;5017219;28;20022;-77
2022/01/30 13:27:36;;;;;;;5.15;4.18;;;-1.70;96.90;;;;;;5027498;28;20036;-77
2022/01/30 13:30:03;;;;;;;8.18;4.35;;;-1.80;96.90;;;;;;5012444;28;20148;-76
2022/01/30 13:32:29;;;;;;;9.32;4.60;;;-1.80;97.00;;;;;;5014392;28;20033;-77
2022/01/30 13:34:58;;;;;;;8.02;4.00;;;-1.80;97.10;;;;;;5014698;28;20038;-76
2022/01/30 13:37:24;;;;;;;8.05;4.43;;;-1.90;97.20;;;;;;5014547;28;20479;-78
2022/01/30 13:46:56;;;;;;;6.28;4.47;;;-1.90;97.40;;;;;;4998868;28;20039;-78
2022/01/30 13:48:16;;;;;;;7.82;4.10;;;-1.90;97.30;;;;;;4997629;28;20034;-79
2022/01/30 13:50:52;;;;;;;6.40;4.72;;;-1.90;97.20;;;;;;5002575;28;20033;-79
2022/01/30 13:53:17;;;;;;;7.80;4.95;;;-1.90;97.40;;;;;;5012595;28;20026;-80
2022/01/30 13:55:58;;;;;;;8.55;4.85;;;-1.90;97.50;;;;;;5014407;28;20026;-78
2022/01/30 13:58:50;;;;;;;6.85;4.30;;;-1.90;97.60;;;;;;5005685;28;20041;-79
2022/01/30 14:01:26;;;;;;;8.25;4.35;;;-2.00;97.50;;;;;;5000218;28;20045;-76
2022/01/30 14:04:04;;;;;;;8.25;4.70;;;-2.00;97.50;;;;;;5001419;28;20464;-78
2022/01/30 14:06:34;;;;;;;5.82;4.20;;;-2.00;97.70;;;;;;4994384;28;20030;-76